Time;durP1;ratioP1;P1;durP2;ratioP2;P2;SDS_P1;SDS_P2;PMS_P1;PMS_P2;Temp;Humidity;BMP_temperature;BMP_pressure;BME280_temperature;BME280_humidity;BME280_pressure;Samples;Min_cycle;Max_cycle;Signal;HPM_P1;HPM_P2
2021/11/29 00:00:16;;;;;;;17.48;9.85;;;5.10;91.40;;;;;;6202077;28;20057;-78
2021/11/29 00:03:19;;;;;;;18.88;10.25;;;5.00;91.50;;;;;;6201899;28;20587;-78
2021/11/29 00:06:21;;;;;;;19.90;9.32;;;4.90;91.50;;;;;;6201715;28;20136;-78
2021/11/29 00:09:23;;;;;;;20.00;10.98;;;4.90;91.50;;;;;;6202140;28;20534;-79
2021/11/29 00:12:26;;;;;;;17.55;8.20;;;4.80;91.30;;;;;;6201990;28;20052;-78
2021/11/29 00:15:28;;;;;;;18.52;9.98;;;4.70;91.50;;;;;;6201607;28;20057;-79
2021/11/29 00:18:30;;;;;;;18.58;9.43;;;4.60;91.70;;;;;;6202046;28;20921;-78
2021/11/29 00:21:32;;;;;;;15.27;8.82;;;4.60;91.70;;;;;;6202138;28;20052;-78
2021/11/29 00:24:34;;;;;;;20.30;9.98;;;4.50;91.80;;;;;;6202481;28;20050;-78
2021/11/29 00:27:38;;;;;;;28.20;9.77;;;4.50;91.90;;;;;;6201673;28;20070;-78
2021/11/29 00:30:41;;;;;;;19.85;9.07;;;4.50;92.30;;;;;;6202948;28;20046;-78
2021/11/29 00:33:43;;;;;;;22.02;8.77;;;4.60;92.10;;;;;;6202320;28;20046;-79
2021/11/29 00:36:45;;;;;;;23.48;9.30;;;4.70;92.00;;;;;;6201567;28;20050;-78
2021/11/29 00:39:47;;;;;;;18.13;10.00;;;4.80;92.00;;;;;;6201469;28;20052;-78
2021/11/29 00:42:50;;;;;;;15.13;9.18;;;4.90;91.90;;;;;;6197333;28;20133;-78
2021/11/29 00:45:52;;;;;;;19.42;10.35;;;5.00;91.80;;;;;;6189485;28;20672;-79
2021/11/29 00:48:54;;;;;;;20.02;9.60;;;5.00;91.70;;;;;;6201884;28;20042;-78
2021/11/29 00:51:56;;;;;;;20.60;10.50;;;5.10;91.50;;;;;;6202129;28;20434;-79
2021/11/29 00:54:58;;;;;;;21.02;10.88;;;5.00;91.50;;;;;;6201853;28;20046;-79
2021/11/29 00:58:01;;;;;;;19.27;10.30;;;4.90;91.50;;;;;;6202414;28;20050;-79
2021/11/29 01:01:03;;;;;;;17.42;8.95;;;4.90;91.50;;;;;;6200786;28;20129;-78
2021/11/29 01:04:05;;;;;;;21.85;10.77;;;4.90;91.50;;;;;;6201274;28;20145;-78
2021/11/29 01:07:07;;;;;;;21.58;10.80;;;4.90;91.70;;;;;;6201778;28;20054;-79
2021/11/29 01:10:10;;;;;;;17.55;10.10;;;4.90;91.60;;;;;;6201750;28;20072;-78
2021/11/29 01:13:13;;;;;;;19.77;8.90;;;4.90;91.50;;;;;;6201830;28;20188;-78
2021/11/29 01:16:15;;;;;;;19.48;9.90;;;4.90;91.50;;;;;;6200419;28;20048;-77
2021/11/29 01:19:17;;;;;;;23.88;9.63;;;4.80;91.50;;;;;;6200562;28;20187;-78
2021/11/29 01:22:19;;;;;;;16.83;9.23;;;4.70;91.40;;;;;;6200204;28;20188;-78
2021/11/29 01:25:21;;;;;;;18.35;8.70;;;4.60;91.60;;;;;;6199876;28;20074;-78
2021/11/29 01:28:24;;;;;;;21.88;10.38;;;4.60;91.60;;;;;;6200893;28;20564;-79
2021/11/29 01:31:26;;;;;;;20.40;9.15;;;4.60;91.60;;;;;;6201268;28;20046;-78
2021/11/29 01:34:28;;;;;;;17.73;8.57;;;4.50;91.40;;;;;;6189552;28;20137;-79
2021/11/29 01:37:30;;;;;;;19.33;8.52;;;4.40;91.60;;;;;;6177120;28;20136;-79
2021/11/29 01:40:32;;;;;;;19.67;9.38;;;4.50;91.70;;;;;;6181875;28;20217;-79
2021/11/29 01:43:35;;;;;;;21.20;10.18;;;4.50;91.70;;;;;;6199838;28;20519;-78
2021/11/29 01:46:37;;;;;;;22.58;9.80;;;4.50;91.50;;;;;;6175619;28;20053;-78
2021/11/29 01:49:39;;;;;;;23.90;9.77;;;4.40;91.40;;;;;;6176734;28;20189;-78
2021/11/29 01:52:41;;;;;;;15.60;8.38;;;4.30;91.40;;;;;;6177037;28;20053;-79
2021/11/29 01:55:44;;;;;;;18.45;9.32;;;4.30;91.50;;;;;;6177832;28;20042;-78
2021/11/29 01:58:48;;;;;;;18.65;8.55;;;4.20;91.60;;;;;;6178525;28;20057;-79
2021/11/29 02:01:50;;;;;;;16.40;8.98;;;4.10;91.60;;;;;;6177408;28;20530;-79
2021/11/29 02:04:52;;;;;;;18.77;9.52;;;4.10;91.80;;;;;;6177200;28;20202;-79
2021/11/29 02:07:55;;;;;;;19.17;9.95;;;4.10;91.70;;;;;;6176699;28;20512;-78
2021/11/29 02:10:57;;;;;;;25.67;10.88;;;4.10;91.80;;;;;;6176682;28;20182;-79
2021/11/29 02:14:01;;;;;;;23.00;9.75;;;4.10;91.80;;;;;;6176134;28;20797;-78
2021/11/29 02:17:06;;;;;;;21.20;8.88;;;4.10;91.80;;;;;;6176013;28;20058;-79
2021/11/29 02:20:09;;;;;;;21.95;9.38;;;4.10;91.80;;;;;;6176358;28;20051;-79
2021/11/29 02:23:12;;;;;;;25.10;11.02;;;4.10;91.90;;;;;;6176436;28;20175;-79
2021/11/29 02:26:15;;;;;;;24.95;10.77;;;4.10;91.80;;;;;;6176501;28;20088;-79
2021/11/29 02:29:17;;;;;;;24.15;10.63;;;4.20;91.80;;;;;;6177201;28;20564;-78
2021/11/29 02:32:19;;;;;;;26.50;11.48;;;4.20;91.80;;;;;;6176755;28;20077;-79
2021/11/29 02:35:22;;;;;;;28.77;11.88;;;4.30;91.80;;;;;;6175828;28;20125;-79
2021/11/29 02:38:25;;;;;;;28.92;11.50;;;4.30;91.60;;;;;;6176872;28;20077;-79
2021/11/29 02:41:27;;;;;;;27.92;11.70;;;4.30;91.60;;;;;;6175869;28;20070;-78
2021/11/29 02:44:29;;;;;;;24.17;10.82;;;4.40;91.70;;;;;;6176658;28;20058;-79
2021/11/29 02:47:31;;;;;;;25.77;10.25;;;4.40;91.60;;;;;;6196601;28;20066;-79
2021/11/29 02:50:35;;;;;;;23.38;9.93;;;4.50;91.60;;;;;;6206782;28;20082;-78
2021/11/29 02:53:39;;;;;;;28.45;11.45;;;4.50;91.50;;;;;;6198871;28;20074;-79
2021/11/29 02:56:43;;;;;;;28.90;12.30;;;4.60;91.50;;;;;;6199164;28;20093;-79
2021/11/29 02:59:45;;;;;;;31.45;11.50;;;4.60;91.50;;;;;;6199286;28;20439;-78
2021/11/29 03:03:02;;;;;;;23.05;11.05;;;4.70;91.40;;;;;;6198534;28;20054;-78
2021/11/29 03:06:04;;;;;;;28.65;11.27;;;4.70;91.30;;;;;;6199366;28;20042;-79
2021/11/29 03:09:08;;;;;;;28.90;11.65;;;4.70;91.20;;;;;;6202334;28;20080;-79
2021/11/29 03:12:10;;;;;;;23.17;9.63;;;4.70;91.20;;;;;;6203753;28;20117;-79
2021/11/29 03:15:12;;;;;;;25.30;9.68;;;4.70;91.20;;;;;;6203099;28;20452;-79
2021/11/29 03:18:13;;;;;;;29.40;11.82;;;4.70;91.30;;;;;;6203568;28;20128;-79
2021/11/29 03:21:18;;;;;;;28.33;10.90;;;4.60;91.30;;;;;;6202796;28;20053;-78
2021/11/29 03:24:21;;;;;;;25.58;10.32;;;4.70;91.20;;;;;;6204211;28;20500;-79
2021/11/29 03:27:23;;;;;;;29.38;11.45;;;4.60;91.20;;;;;;6203536;28;20503;-78
2021/11/29 03:30:24;;;;;;;24.80;11.00;;;4.60;91.30;;;;;;6203744;28;20074;-78
2021/11/29 03:33:26;;;;;;;22.05;10.00;;;4.60;91.40;;;;;;6203611;28;20050;-79
2021/11/29 03:36:30;;;;;;;30.58;11.10;;;4.60;91.50;;;;;;6202567;28;20181;-78
2021/11/29 03:39:33;;;;;;;26.08;11.18;;;4.60;91.40;;;;;;6203364;28;20129;-79
2021/11/29 03:42:35;;;;;;;25.38;11.48;;;4.60;91.40;;;;;;6203554;28;20129;-79
2021/11/29 03:45:36;;;;;;;25.35;11.95;;;4.70;91.40;;;;;;6200113;28;20936;-78
2021/11/29 03:48:38;;;;;;;24.20;10.43;;;4.60;91.30;;;;;;6192306;28;20046;-78
2021/11/29 03:51:40;;;;;;;27.23;9.98;;;4.70;91.40;;;;;;6204448;28;20039;-78
2021/11/29 03:54:43;;;;;;;29.40;12.20;;;4.70;91.50;;;;;;6204399;28;20093;-78
2021/11/29 03:57:45;;;;;;;25.33;11.30;;;4.70;91.40;;;;;;6203496;28;20126;-78
2021/11/29 04:00:47;;;;;;;24.80;12.27;;;4.70;91.30;;;;;;6202971;28;20096;-78
2021/11/29 04:03:49;;;;;;;22.70;11.93;;;4.80;91.50;;;;;;6204061;28;20125;-78
2021/11/29 04:06:51;;;;;;;23.02;10.43;;;4.80;91.40;;;;;;6204296;28;20190;-79
2021/11/29 04:09:54;;;;;;;30.85;13.05;;;4.80;91.10;;;;;;6203093;28;20046;-78
2021/11/29 04:12:56;;;;;;;22.85;11.68;;;4.70;91.20;;;;;;6202993;28;20047;-78
2021/11/29 04:15:58;;;;;;;30.92;12.77;;;4.70;91.20;;;;;;6202349;28;20102;-78
2021/11/29 04:18:59;;;;;;;25.60;11.25;;;4.70;91.00;;;;;;6201964;28;20132;-78
2021/11/29 04:22:01;;;;;;;27.95;11.93;;;4.60;91.20;;;;;;6202337;28;20136;-78
2021/11/29 04:25:06;;;;;;;32.65;12.32;;;4.60;91.20;;;;;;6201966;28;20120;-78
2021/11/29 04:28:08;;;;;;;28.38;11.95;;;4.50;91.30;;;;;;6202878;28;20632;-78
2021/11/29 04:31:10;;;;;;;21.15;9.90;;;4.50;91.30;;;;;;6201646;28;20056;-78
2021/11/29 04:34:12;;;;;;;28.50;12.27;;;4.40;91.30;;;;;;6202798;28;20054;-78
2021/11/29 04:37:14;;;;;;;23.35;11.10;;;4.40;91.40;;;;;;6201031;28;20049;-78
2021/11/29 04:40:17;;;;;;;26.75;11.27;;;4.30;91.30;;;;;;6201513;28;20054;-78
2021/11/29 04:43:19;;;;;;;23.50;11.48;;;4.30;91.50;;;;;;6201237;28;20062;-78
2021/11/29 04:46:21;;;;;;;28.48;11.82;;;4.30;91.50;;;;;;6201626;28;20528;-78
2021/11/29 04:49:23;;;;;;;25.38;10.52;;;4.30;91.50;;;;;;6201226;28;20060;-79
2021/11/29 04:52:24;;;;;;;29.33;11.18;;;4.30;91.60;;;;;;6200929;28;20089;-78
2021/11/29 04:55:28;;;;;;;34.38;14.13;;;4.20;91.50;;;;;;6200464;28;20046;-78
2021/11/29 04:58:30;;;;;;;28.42;12.55;;;4.20;91.40;;;;;;6201796;28;20276;-78
2021/11/29 05:01:32;;;;;;;26.50;10.43;;;4.10;91.50;;;;;;6200359;28;20050;-77
2021/11/29 05:04:34;;;;;;;25.73;11.10;;;4.10;91.50;;;;;;6201556;28;20047;-77
2021/11/29 05:07:36;;;;;;;26.20;11.20;;;4.00;91.60;;;;;;6200578;28;20050;-78
2021/11/29 05:10:39;;;;;;;30.35;11.88;;;4.00;91.60;;;;;;6201737;28;20098;-77
2021/11/29 05:13:41;;;;;;;31.67;11.43;;;4.00;91.70;;;;;;6200287;28;20046;-78
2021/11/29 05:16:43;;;;;;;34.20;12.90;;;4.00;91.70;;;;;;6200502;28;20054;-78
2021/11/29 05:19:46;;;;;;;31.15;13.35;;;4.00;91.60;;;;;;6200514;28;20046;-78
2021/11/29 05:22:49;;;;;;;32.33;14.52;;;3.90;91.60;;;;;;6200980;28;20050;-77
2021/11/29 05:25:52;;;;;;;35.40;12.25;;;3.90;91.60;;;;;;6198268;28;20534;-78
2021/11/29 05:28:56;;;;;;;35.22;13.90;;;3.80;91.60;;;;;;6198673;28;20050;-78
2021/11/29 05:31:58;;;;;;;35.55;14.50;;;3.80;91.70;;;;;;6198023;28;20053;-77
2021/11/29 05:35:00;;;;;;;43.40;12.70;;;3.80;91.80;;;;;;6198257;28;20054;-77
2021/11/29 05:38:02;;;;;;;32.75;13.98;;;3.70;91.70;;;;;;6199093;28;20153;-78
2021/11/29 05:41:06;;;;;;;26.95;11.55;;;3.70;91.70;;;;;;6197776;28;20054;-78
2021/11/29 05:44:08;;;;;;;36.40;14.52;;;3.50;91.70;;;;;;6198219;28;20054;-77
2021/11/29 05:47:10;;;;;;;30.92;13.00;;;3.40;91.80;;;;;;6198312;28;20058;-77
2021/11/29 05:50:14;;;;;;;33.10;13.48;;;3.20;91.90;;;;;;6197613;28;20444;-78
2021/11/29 05:53:16;;;;;;;38.08;12.82;;;3.10;92.10;;;;;;6198757;28;20046;-78
2021/11/29 05:56:19;;;;;;;29.50;11.95;;;3.00;92.30;;;;;;6198124;28;20193;-78
2021/11/29 05:59:22;;;;;;;34.42;12.88;;;2.90;92.40;;;;;;6197423;28;20122;-78
2021/11/29 06:02:24;;;;;;;34.42;13.32;;;2.80;92.40;;;;;;6199888;28;20125;-79
2021/11/29 06:05:26;;;;;;;29.85;11.93;;;2.70;92.50;;;;;;6200213;28;20046;-78
2021/11/29 06:08:27;;;;;;;34.72;12.65;;;2.70;92.60;;;;;;6200382;28;20125;-79
2021/11/29 06:11:31;;;;;;;25.25;12.57;;;2.60;92.60;;;;;;6200086;28;20133;-78
2021/11/29 06:14:32;;;;;;;32.97;12.45;;;2.60;92.60;;;;;;6200074;28;20484;-78
2021/11/29 06:17:34;;;;;;;34.10;13.05;;;2.50;92.60;;;;;;6199097;28;20104;-78
2021/11/29 06:20:36;;;;;;;37.10;13.80;;;2.50;92.80;;;;;;6199175;28;20101;-78
2021/11/29 06:23:39;;;;;;;32.20;12.25;;;2.40;92.80;;;;;;6200488;28;20046;-78
2021/11/29 06:26:42;;;;;;;30.38;12.90;;;2.40;92.70;;;;;;6200260;28;20054;-79
2021/11/29 06:29:44;;;;;;;38.78;14.48;;;2.40;92.80;;;;;;6200695;28;20534;-78
2021/11/29 06:32:46;;;;;;;35.50;12.32;;;2.40;92.90;;;;;;6201702;28;20045;-79
2021/11/29 06:35:48;;;;;;;41.38;13.20;;;2.40;92.70;;;;;;6200793;28;20129;-79
2021/11/29 06:38:50;;;;;;;40.15;13.45;;;2.50;92.60;;;;;;6200193;28;20133;-79
2021/11/29 06:41:53;;;;;;;37.75;12.32;;;2.50;92.50;;;;;;6200430;28;20057;-78
2021/11/29 06:44:55;;;;;;;34.60;13.00;;;2.50;92.40;;;;;;6205137;28;20057;-79
2021/11/29 06:47:57;;;;;;;39.90;14.00;;;2.50;92.40;;;;;;6206099;28;20070;-78
2021/11/29 06:50:59;;;;;;;39.72;13.27;;;2.40;92.50;;;;;;6203988;28;20150;-78
2021/11/29 06:54:01;;;;;;;44.00;13.38;;;2.30;92.50;;;;;;6206386;28;20524;-79
2021/11/29 06:57:05;;;;;;;42.97;13.82;;;2.30;92.60;;;;;;6206798;28;20046;-78
2021/11/29 07:00:08;;;;;;;41.90;14.00;;;2.20;92.60;;;;;;6206698;28;20070;-79
2021/11/29 07:03:10;;;;;;;45.45;14.40;;;2.20;92.70;;;;;;6206666;28;20465;-79
2021/11/29 07:06:12;;;;;;;41.03;14.43;;;2.10;92.70;;;;;;6205997;28;20517;-78
2021/11/29 07:09:14;;;;;;;48.08;15.13;;;2.10;92.80;;;;;;6205683;28;20598;-79
2021/11/29 07:12:18;;;;;;;45.25;14.15;;;2.10;92.90;;;;;;6205676;28;20073;-79
2021/11/29 07:15:21;;;;;;;39.67;14.10;;;2.10;93.10;;;;;;6204874;28;20125;-78
2021/11/29 07:18:23;;;;;;;43.72;15.52;;;2.10;93.10;;;;;;6205862;28;20057;-79
2021/11/29 07:21:25;;;;;;;46.58;14.05;;;2.10;93.10;;;;;;6205330;28;20061;-79
2021/11/29 07:24:27;;;;;;;56.40;17.10;;;2.10;93.20;;;;;;6205372;28;20050;-79
2021/11/29 07:27:31;;;;;;;42.13;15.57;;;2.00;93.10;;;;;;6205408;28;20050;-79
2021/11/29 07:30:33;;;;;;;44.47;15.57;;;2.10;93.10;;;;;;6205836;28;20057;-79
2021/11/29 07:33:35;;;;;;;42.85;15.43;;;2.10;93.20;;;;;;6204411;28;20122;-79
2021/11/29 07:36:37;;;;;;;45.70;15.32;;;2.10;93.30;;;;;;6203267;28;20146;-78
2021/11/29 07:39:39;;;;;;;51.13;16.85;;;2.20;93.20;;;;;;6203499;28;20196;-78
2021/11/29 07:42:43;;;;;;;60.88;16.13;;;2.20;93.30;;;;;;6203468;28;20104;-78
2021/11/29 07:45:45;;;;;;;55.70;18.35;;;2.20;93.30;;;;;;6201579;28;20072;-78
2021/11/29 07:48:47;;;;;;;58.92;18.35;;;2.30;93.40;;;;;;6201508;28;20528;-78
2021/11/29 07:51:49;;;;;;;67.57;17.23;;;2.40;93.40;;;;;;6203256;28;20042;-78
2021/11/29 07:54:50;;;;;;;57.25;17.88;;;2.50;93.40;;;;;;6203850;28;20810;-78
2021/11/29 07:57:55;;;;;;;61.28;19.30;;;2.60;93.30;;;;;;6201910;28;20516;-78
2021/11/29 08:00:57;;;;;;;66.53;19.63;;;2.70;93.30;;;;;;6202296;28;20050;-78
2021/11/29 08:03:58;;;;;;;67.03;21.77;;;2.80;93.30;;;;;;6203272;28;20046;-80
2021/11/29 08:07:00;;;;;;;88.38;23.02;;;3.00;93.30;;;;;;6204823;28;20060;-78
2021/11/29 08:10:02;;;;;;;77.70;21.38;;;3.10;93.20;;;;;;6204289;28;20042;-79
2021/11/29 08:13:08;;;;;;;69.57;21.33;;;3.30;93.10;;;;;;6185532;28;20042;-79
2021/11/29 08:16:10;;;;;;;100.78;24.00;;;3.50;93.10;;;;;;6187937;28;20047;-79
2021/11/29 08:19:12;;;;;;;93.60;27.05;;;3.80;93.40;;;;;;6195197;28;20114;-79
2021/11/29 08:22:14;;;;;;;105.50;25.13;;;4.00;92.50;;;;;;6190249;28;20043;-80
2021/11/29 08:25:16;;;;;;;91.55;25.48;;;4.40;92.10;;;;;;6204802;28;20504;-78
2021/11/29 08:28:19;;;;;;;106.32;25.30;;;4.70;91.90;;;;;;6201253;28;20129;-78
2021/11/29 08:31:21;;;;;;;84.03;24.77;;;5.20;91.70;;;;;;6200519;28;20050;-78
2021/11/29 08:34:23;;;;;;;68.25;21.33;;;5.80;90.80;;;;;;6201355;28;20046;-78
2021/11/29 08:37:24;;;;;;;43.28;15.60;;;6.30;90.40;;;;;;6200646;28;20508;-79
2021/11/29 08:40:29;;;;;;;32.35;13.20;;;6.70;87.20;;;;;;6202340;28;20046;-80
2021/11/29 08:43:32;;;;;;;23.45;10.50;;;6.70;86.50;;;;;;6205231;28;20055;-81
2021/11/29 08:46:35;;;;;;;22.52;10.32;;;6.80;86.40;;;;;;6197383;28;20132;-80
2021/11/29 08:49:37;;;;;;;22.38;9.95;;;6.60;84.50;;;;;;6205107;28;20200;-80
2021/11/29 08:52:39;;;;;;;20.85;9.45;;;6.40;86.50;;;;;;6186550;28;20050;-81
2021/11/29 08:55:41;;;;;;;19.77;10.10;;;6.30;84.80;;;;;;6181201;28;20137;-80
2021/11/29 08:58:44;;;;;;;16.52;8.05;;;6.10;86.10;;;;;;6179537;28;20130;-79
2021/11/29 09:01:47;;;;;;;19.40;10.38;;;6.10;86.30;;;;;;6176519;28;20152;-79
2021/11/29 09:04:49;;;;;;;19.42;8.43;;;6.20;86.20;;;;;;6177920;28;20130;-80
2021/11/29 09:07:51;;;;;;;15.93;7.63;;;6.20;84.90;;;;;;6179600;28;20424;-81
2021/11/29 09:10:54;;;;;;;24.23;8.27;;;6.20;85.20;;;;;;6179679;28;20082;-79
2021/11/29 09:13:57;;;;;;;16.48;6.30;;;6.20;83.60;;;;;;6190387;28;20519;-81
2021/11/29 09:16:59;;;;;;;17.65;6.18;;;6.20;84.10;;;;;;6186395;28;20162;-80
2021/11/29 09:20:02;;;;;;;18.63;7.15;;;6.30;84.80;;;;;;6176989;28;20627;-79
2021/11/29 09:23:06;;;;;;;13.15;6.13;;;6.40;82.90;;;;;;6178671;28;20096;-81
2021/11/29 09:26:08;;;;;;;11.07;6.25;;;6.40;82.50;;;;;;6177451;28;20054;-79
2021/11/29 09:29:11;;;;;;;20.80;7.93;;;6.30;82.40;;;;;;6177750;28;20046;-81
2021/11/29 09:32:13;;;;;;;19.52;6.53;;;6.30;82.50;;;;;;6178809;28;20049;-80
2021/11/29 09:35:18;;;;;;;15.88;7.38;;;6.40;82.20;;;;;;6177725;28;20043;-79
2021/11/29 09:38:20;;;;;;;12.73;5.55;;;6.50;82.60;;;;;;6178427;28;20057;-78
2021/11/29 09:41:24;;;;;;;8.23;4.60;;;6.60;82.30;;;;;;6177094;28;20525;-79
2021/11/29 09:44:27;;;;;;;15.18;6.35;;;6.50;80.90;;;;;;6188948;28;20038;-79
2021/11/29 09:47:30;;;;;;;21.48;7.00;;;6.60;81.10;;;;;;6196383;28;20042;-78
2021/11/29 09:50:32;;;;;;;16.98;6.47;;;6.60;81.00;;;;;;6200796;28;20126;-81
2021/11/29 09:53:34;;;;;;;10.05;5.07;;;6.60;80.60;;;;;;6192698;28;20545;-80
2021/11/29 09:56:37;;;;;;;14.38;6.47;;;6.60;81.00;;;;;;6174030;28;20043;-80
2021/11/29 09:59:40;;;;;;;15.68;5.75;;;6.60;81.40;;;;;;6175465;28;20050;-79
2021/11/29 10:02:42;;;;;;;14.07;6.22;;;6.60;79.40;;;;;;6176202;28;20061;-80
2021/11/29 10:05:44;;;;;;;12.32;5.55;;;6.50;79.30;;;;;;6174939;28;20050;-79
2021/11/29 10:08:45;;;;;;;16.00;6.07;;;6.30;79.80;;;;;;6176100;28;20054;-79
2021/11/29 10:11:47;;;;;;;13.85;5.95;;;6.20;79.60;;;;;;6176638;28;20666;-80
2021/11/29 10:15:18;;;;;;;10.40;4.97;;;6.00;80.50;;;;;;6188314;28;20121;-80
2021/11/29 10:18:22;;;;;;;15.23;5.97;;;6.00;80.10;;;;;;6178608;28;20181;-79
2021/11/29 10:21:24;;;;;;;11.23;4.82;;;5.90;80.30;;;;;;6181305;28;20126;-79
2021/11/29 10:24:26;;;;;;;11.40;5.80;;;6.10;80.40;;;;;;6203395;28;20141;-79
2021/11/29 10:27:38;;;;;;;19.35;5.70;;;6.20;81.00;;;;;;6203662;28;20052;-80
2021/11/29 10:30:41;;;;;;;16.42;6.60;;;6.30;80.10;;;;;;6203299;28;20506;-79
2021/11/29 10:33:49;;;;;;;23.73;7.40;;;6.30;80.60;;;;;;6202915;28;20449;-80
2021/11/29 10:36:53;;;;;;;18.08;5.03;;;6.30;81.00;;;;;;6202258;28;20057;-80
2021/11/29 10:39:55;;;;;;;12.65;5.43;;;6.30;79.00;;;;;;6203246;28;20052;-79
2021/11/29 10:43:04;;;;;;;15.18;5.85;;;6.20;78.70;;;;;;6203001;28;20054;-80
2021/11/29 10:46:22;;;;;;;15.50;5.70;;;6.30;79.20;;;;;;6187914;28;20046;-80
2021/11/29 10:49:27;;;;;;;15.43;6.18;;;6.50;79.00;;;;;;6179374;28;20101;-80
2021/11/29 10:52:32;;;;;;;12.70;5.28;;;6.60;76.80;;;;;;6178147;28;20073;-80
2021/11/29 10:55:58;;;;;;;12.38;5.32;;;6.70;76.80;;;;;;6179738;28;20039;-79
2021/11/29 10:59:05;;;;;;;11.40;4.95;;;6.60;77.20;;;;;;6178098;28;20058;-79
2021/11/29 11:02:12;;;;;;;11.77;5.43;;;6.60;77.50;;;;;;6179103;28;20086;-79
2021/11/29 11:05:14;;;;;;;40.47;5.78;;;6.50;76.30;;;;;;6178088;28;20082;-79
2021/11/29 11:08:18;;;;;;;16.17;5.28;;;6.40;77.20;;;;;;6178407;28;20042;-80
2021/11/29 11:11:35;;;;;;;8.65;4.80;;;6.40;76.80;;;;;;6178211;28;20126;-79
2021/11/29 11:14:38;;;;;;;11.45;4.38;;;6.30;77.00;;;;;;6190786;28;20097;-79
2021/11/29 11:17:42;;;;;;;15.63;4.93;;;6.30;76.90;;;;;;6199014;28;20069;-80
2021/11/29 11:20:44;;;;;;;11.68;5.07;;;6.30;76.30;;;;;;6201832;28;20221;-79
2021/11/29 11:23:45;;;;;;;12.55;4.65;;;6.20;75.60;;;;;;6202360;28;20136;-79
2021/11/29 11:26:48;;;;;;;10.15;4.25;;;5.90;75.70;;;;;;6202181;28;20100;-80
2021/11/29 11:29:52;;;;;;;11.23;5.78;;;6.10;77.00;;;;;;6200961;28;20427;-79
2021/11/29 11:32:59;;;;;;;12.80;5.25;;;6.20;76.80;;;;;;6202387;28;20046;-80
2021/11/29 11:36:01;;;;;;;10.68;4.28;;;6.30;76.40;;;;;;6205857;28;20050;-79
2021/11/29 11:39:05;;;;;;;17.83;8.35;;;6.30;76.30;;;;;;6206280;28;20050;-80
2021/11/29 11:42:07;;;;;;;11.57;5.50;;;6.30;75.90;;;;;;6203443;28;20076;-80
2021/11/29 11:45:11;;;;;;;11.27;5.18;;;6.30;75.10;;;;;;6193882;28;20420;-79
2021/11/29 11:48:17;;;;;;;11.43;3.97;;;6.20;75.30;;;;;;6202465;28;20130;-80
2021/11/29 11:51:19;;;;;;;10.18;4.55;;;6.30;76.00;;;;;;6203030;28;20142;-80
2021/11/29 11:54:21;;;;;;;9.48;4.60;;;6.30;75.20;;;;;;6196144;28;20517;-80
2021/11/29 11:57:24;;;;;;;12.07;5.13;;;6.20;74.50;;;;;;6201488;28;20074;-80
2021/11/29 12:00:33;;;;;;;18.92;4.93;;;6.10;75.10;;;;;;6201442;28;20128;-80
2021/11/29 12:03:41;;;;;;;14.75;4.65;;;6.10;75.20;;;;;;6201991;28;20052;-80
2021/11/29 12:06:48;;;;;;;10.30;4.60;;;6.00;74.90;;;;;;6201499;28;20054;-80
2021/11/29 12:09:50;;;;;;;6.82;3.55;;;6.00;75.40;;;;;;6201916;28;20051;-80
2021/11/29 12:12:59;;;;;;;8.10;4.15;;;6.00;74.90;;;;;;6202071;28;20550;-80
2021/11/29 12:16:01;;;;;;;10.70;4.70;;;5.80;74.90;;;;;;6193648;28;20125;-82
2021/11/29 12:19:04;;;;;;;10.77;4.20;;;5.70;75.60;;;;;;6201805;28;20072;-79
2021/11/29 12:22:33;;;;;;;7.35;4.47;;;5.70;76.10;;;;;;6203387;28;20052;-80
2021/11/29 12:25:47;;;;;;;9.27;5.57;;;5.80;76.90;;;;;;6200732;28;20038;-82
2021/11/29 12:28:49;;;;;;;9.30;4.63;;;5.80;76.90;;;;;;6197104;28;20043;-81
2021/11/29 12:31:52;;;;;;;10.13;4.57;;;5.90;77.10;;;;;;6176690;28;20057;-81
2021/11/29 12:35:05;;;;;;;13.60;4.82;;;5.90;76.00;;;;;;6177227;28;20047;-82
2021/11/29 12:38:09;;;;;;;9.00;4.10;;;5.90;75.50;;;;;;6177552;28;20051;-81
2021/11/29 12:41:11;;;;;;;11.88;4.40;;;5.80;75.60;;;;;;6174574;28;20047;-80
2021/11/29 12:44:14;;;;;;;6.88;3.45;;;5.80;75.10;;;;;;6184221;28;20039;-79
2021/11/29 12:47:17;;;;;;;13.32;4.43;;;5.80;75.30;;;;;;6192861;28;20460;-81
2021/11/29 12:50:47;;;;;;;6.22;3.53;;;5.80;76.10;;;;;;6200150;28;20052;-79
2021/11/29 12:53:49;;;;;;;5.95;3.80;;;5.90;75.60;;;;;;6199773;28;20042;-81
2021/11/29 12:57:21;;;;;;;12.13;3.88;;;5.80;75.80;;;;;;6186721;28;20065;-79
2021/11/29 13:00:24;;;;;;;10.43;3.88;;;5.90;75.20;;;;;;6175461;28;20058;-79
2021/11/29 13:03:29;;;;;;;10.55;3.13;;;5.90;76.30;;;;;;6176552;28;20112;-79
2021/11/29 13:06:53;;;;;;;14.00;5.30;;;6.10;76.20;;;;;;6175021;28;20058;-80
2021/11/29 13:09:55;;;;;;;12.30;4.20;;;6.20;75.80;;;;;;6175832;28;20126;-80
2021/11/29 13:13:23;;;;;;;9.98;4.13;;;6.40;75.30;;;;;;6178518;28;20050;-80
2021/11/29 13:16:46;;;;;;;14.18;4.13;;;6.40;75.20;;;;;;6182192;28;20051;-80
2021/11/29 13:19:49;;;;;;;5.63;3.22;;;6.40;74.80;;;;;;6175013;28;20051;-79
2021/11/29 13:22:52;;;;;;;9.23;4.18;;;6.40;74.50;;;;;;6175624;28;20572;-79
2021/11/29 13:26:00;;;;;;;6.93;4.25;;;6.20;74.40;;;;;;6175631;28;20062;-80
2021/11/29 13:29:06;;;;;;;7.63;4.10;;;6.30;74.50;;;;;;6175931;28;20050;-80
2021/11/29 13:32:11;;;;;;;12.27;8.55;;;6.30;74.70;;;;;;6175814;28;20178;-80
2021/11/29 13:35:16;;;;;;;5.88;3.75;;;6.30;75.20;;;;;;6175985;28;20144;-80
2021/11/29 13:38:25;;;;;;;20.48;12.95;;;6.30;74.70;;;;;;6176892;28;20058;-81
2021/11/29 13:41:27;;;;;;;11.38;5.75;;;6.30;75.60;;;;;;6177456;28;20042;-79
2021/11/29 13:44:29;;;;;;;12.65;7.63;;;6.30;75.30;;;;;;6190148;28;20107;-82
2021/11/29 13:47:33;;;;;;;15.70;8.02;;;6.20;75.90;;;;;;6195891;28;20053;-80
2021/11/29 13:50:39;;;;;;;20.23;7.97;;;6.20;76.00;;;;;;6200287;28;20433;-82
2021/11/29 13:53:43;;;;;;;35.25;14.57;;;6.10;76.20;;;;;;6203511;28;20046;-82
2021/11/29 13:56:45;;;;;;;13.70;7.68;;;6.00;76.60;;;;;;6199233;28;20038;-81
2021/11/29 13:59:47;;;;;;;7.20;4.43;;;6.00;77.60;;;;;;6185362;28;20063;-81
2021/11/29 14:03:08;;;;;;;14.68;6.07;;;5.90;78.00;;;;;;6182281;28;20059;-80
2021/11/29 14:06:10;;;;;;;15.43;9.60;;;5.80;79.20;;;;;;6177213;28;20049;-80
2021/11/29 14:09:18;;;;;;;12.85;7.15;;;5.70;79.60;;;;;;6175811;28;20050;-80
2021/11/29 14:12:20;;;;;;;;;;;5.60;80.60;;;;;;6174892;28;20130;-81
2021/11/29 14:15:22;;;;;;;11.15;5.55;;;5.50;81.30;;;;;;6190718;28;19922;-79
2021/11/29 14:18:26;;;;;;;20.17;11.93;;;5.40;81.80;;;;;;6200559;28;20129;-80
2021/11/29 14:21:31;;;;;;;37.47;12.20;;;5.20;82.60;;;;;;6199688;28;20051;-81
2021/11/29 14:24:35;;;;;;;10.93;5.13;;;5.10;83.60;;;;;;6186881;28;20132;-81
2021/11/29 14:27:37;;;;;;;17.25;7.53;;;5.00;84.40;;;;;;6177290;28;20047;-79
2021/11/29 14:30:40;;;;;;;14.30;6.25;;;4.90;85.10;;;;;;6176188;28;20055;-80
2021/11/29 14:33:43;;;;;;;14.52;6.40;;;4.80;86.20;;;;;;6175864;28;20046;-81
2021/11/29 14:36:47;;;;;;;15.30;6.80;;;4.70;85.90;;;;;;6176239;28;20047;-82
2021/11/29 14:39:57;;;;;;;15.05;6.28;;;4.70;87.00;;;;;;6175690;28;20051;-80
2021/11/29 14:42:59;;;;;;;13.63;7.05;;;4.80;87.30;;;;;;6180629;28;20125;-82
2021/11/29 14:46:03;;;;;;;22.48;6.78;;;4.70;87.40;;;;;;6194491;28;20153;-84
2021/11/29 14:49:23;;;;;;;13.63;5.68;;;4.70;87.90;;;;;;6203319;28;20046;-82
2021/11/29 14:52:24;;;;;;;15.65;6.68;;;4.70;87.60;;;;;;6200585;28;20038;-83
2021/11/29 14:55:30;;;;;;;11.18;6.20;;;4.70;87.70;;;;;;6200557;28;20046;-81
2021/11/29 14:58:35;;;;;;;17.13;6.00;;;4.70;87.50;;;;;;6189002;28;20050;-83
2021/11/29 15:01:36;;;;;;;12.32;5.85;;;4.70;87.30;;;;;;6178303;28;20073;-83
2021/11/29 15:04:40;;;;;;;12.98;4.47;;;4.80;87.60;;;;;;6179681;28;20624;-83
2021/11/29 15:07:43;;;;;;;10.50;5.55;;;4.90;87.50;;;;;;6183120;28;20057;-83
2021/11/29 15:10:47;;;;;;;13.73;5.88;;;4.90;86.70;;;;;;6184403;28;20074;-84
2021/11/29 15:13:51;;;;;;;12.18;5.30;;;4.80;86.80;;;;;;6193268;28;20089;-83
2021/11/29 15:16:55;;;;;;;18.23;6.50;;;4.70;87.20;;;;;;6198233;28;20053;-83
2021/11/29 15:19:57;;;;;;;14.68;5.80;;;4.70;87.20;;;;;;6205578;28;20053;-81
2021/11/29 15:23:02;;;;;;;12.25;6.05;;;4.70;87.70;;;;;;6205201;28;20452;-81
2021/11/29 15:26:05;;;;;;;9.23;5.50;;;4.60;87.80;;;;;;6205471;28;20073;-84
2021/11/29 15:29:08;;;;;;;18.75;7.10;;;4.60;87.70;;;;;;6205298;28;20070;-81
2021/11/29 15:32:16;;;;;;;20.85;5.80;;;4.70;88.00;;;;;;6202972;28;20180;-82
2021/11/29 15:35:20;;;;;;;11.52;5.93;;;4.70;87.90;;;;;;6202902;28;20050;-81
2021/11/29 15:38:23;;;;;;;5.63;4.22;;;4.50;87.50;;;;;;6204178;28;20073;-83
2021/11/29 15:41:27;;;;;;;10.73;5.68;;;4.50;88.20;;;;;;6204730;28;20126;-84
2021/11/29 15:44:30;;;;;;;13.88;5.10;;;4.40;88.90;;;;;;6200868;28;20130;-83
2021/11/29 15:47:31;;;;;;;14.45;5.50;;;4.30;88.80;;;;;;6200235;28;20487;-83
2021/11/29 15:50:34;;;;;;;8.93;4.55;;;4.20;89.40;;;;;;6207029;28;20054;-82